Time;durP1;ratioP1;P1;durP2;ratioP2;P2;SDS_P1;SDS_P2;PMS_P1;PMS_P2;Temp;Humidity;BMP_temperature;BMP_pressure;BME280_temperature;BME280_humidity;BME280_pressure;Samples;Min_cycle;Max_cycle;Signal;HPM_P1;HPM_P2
2022/12/05 00:01:16;;;;;;;15.93;9.02;;;;;;;7.20;88.16;100920.56;3145702;28;20040;-67
2022/12/05 00:02:48;;;;;;;18.10;8.68;;;;;;;7.18;88.30;100916.28;3145309;28;20084;-68
2022/12/05 00:04:20;;;;;;;19.58;9.93;;;;;;;7.10;87.96;100898.25;3145821;28;20078;-68
2022/12/05 00:05:52;;;;;;;18.48;10.23;;;;;;;7.19;87.82;100923.19;3145731;28;20088;-68
2022/12/05 00:07:25;;;;;;;18.75;9.68;;;;;;;7.19;88.00;100916.25;3145174;28;20110;-69
2022/12/05 00:08:57;;;;;;;17.38;8.68;;;;;;;7.19;88.07;100918.00;3145718;28;20060;-69
2022/12/05 00:10:29;;;;;;;18.35;9.13;;;;;;;7.19;88.00;100918.00;3145580;28;20650;-69
2022/12/05 00:12:01;;;;;;;16.02;8.77;;;;;;;7.16;87.76;100910.25;3145493;28;20149;-68
2022/12/05 00:13:32;;;;;;;20.58;10.07;;;;;;;7.17;88.01;100909.38;3145646;28;20051;-68
2022/12/05 00:15:05;;;;;;;18.40;9.63;;;;;;;7.22;87.85;100918.81;3145497;28;20044;-68
2022/12/05 00:16:39;;;;;;;19.83;9.35;;;;;;;6.61;87.60;100816.88;3145176;28;20469;-69
2022/12/05 00:18:11;;;;;;;15.70;8.73;;;;;;;7.21;87.50;100916.22;3146027;28;20048;-68
2022/12/05 00:19:43;;;;;;;19.75;8.93;;;;;;;7.06;87.73;100891.38;3145339;28;20044;-68
2022/12/05 00:21:17;;;;;;;16.85;8.48;;;;;;;7.16;87.55;100908.53;3144979;28;20052;-68
2022/12/05 00:22:50;;;;;;;16.73;7.95;;;;;;;7.16;87.59;100905.06;3145684;28;20049;-68
2022/12/05 00:24:22;;;;;;;16.60;8.43;;;;;;;7.18;87.47;100909.34;3145977;28;20059;-68
2022/12/05 00:25:54;;;;;;;15.73;8.95;;;;;;;7.14;87.30;100902.50;3144740;28;20399;-68
2022/12/05 00:27:25;;;;;;;15.73;8.38;;;;;;;7.18;87.44;100905.91;3145440;28;20053;-69
2022/12/05 00:28:57;;;;;;;15.52;8.70;;;;;;;7.17;87.59;100909.38;3145295;28;20059;-69
2022/12/05 00:30:29;;;;;;;15.10;8.38;;;;;;;7.18;87.31;100905.91;3145362;28;20052;-70
2022/12/05 00:32:01;;;;;;;15.63;7.68;;;;;;;7.16;87.34;100903.34;3145311;28;20107;-69
2022/12/05 00:33:32;;;;;;;15.70;7.90;;;;;;;7.17;87.23;100902.47;3145387;28;20059;-69
2022/12/05 00:35:04;;;;;;;15.50;7.90;;;;;;;7.17;87.53;100906.78;3144898;28;20055;-70
2022/12/05 00:36:36;;;;;;;16.58;8.63;;;;;;;7.16;87.42;100905.94;3145343;28;20056;-70
2022/12/05 00:38:09;;;;;;;15.35;8.65;;;;;;;7.07;87.50;100896.56;3145532;28;20051;-69
2022/12/05 00:39:41;;;;;;;15.13;8.55;;;;;;;7.13;87.83;100902.50;3132544;28;20053;-69
2022/12/05 00:41:15;;;;;;;16.38;8.02;;;;;;;7.12;87.88;100904.25;3144253;28;20064;-69
2022/12/05 00:42:47;;;;;;;12.63;7.32;;;;;;;7.15;87.64;100911.97;3145087;28;20158;-69
2022/12/05 00:44:19;;;;;;;15.20;8.00;;;;;;;7.15;87.58;100908.53;3151745;28;20074;-67
2022/12/05 00:45:49;;;;;;;15.40;8.10;;;;;;;7.15;87.60;100916.31;3150040;28;20129;-68
2022/12/05 00:47:21;;;;;;;16.25;7.85;;;;;;;7.04;87.52;100895.75;3145563;28;20044;-71
2022/12/05 00:48:54;;;;;;;13.65;7.20;;;;;;;7.13;87.50;100912.88;3144874;28;20044;-69
2022/12/05 00:50:26;;;;;;;13.30;7.40;;;;;;;7.16;87.58;100918.91;3144779;28;20464;-68
2022/12/05 00:51:58;;;;;;;13.60;7.55;;;;;;;6.73;87.39;100851.25;3145234;28;20044;-68
2022/12/05 00:53:30;;;;;;;14.13;7.68;;;;;;;7.16;87.52;100913.72;3144857;28;20101;-69
2022/12/05 00:55:02;;;;;;;16.77;8.48;;;;;;;7.16;87.55;100913.72;3144507;28;20450;-69
2022/12/05 00:56:34;;;;;;;13.80;8.15;;;;;;;7.13;87.39;100902.50;3144989;28;20074;-69
2022/12/05 00:58:06;;;;;;;15.77;8.35;;;;;;;7.16;87.20;100912.84;3144793;28;20411;-69
2022/12/05 00:59:40;;;;;;;17.15;8.70;;;;;;;7.10;87.20;100899.97;3144978;28;20052;-68
2022/12/05 01:01:11;;;;;;;;;;;;;;;7.10;87.24;100918.09;3145206;28;20052;-69
2022/12/05 01:02:43;;;;;;;15.27;7.75;;;;;;;7.07;87.77;100911.25;3144702;28;19924;-69
2022/12/05 01:04:18;;;;;;;17.55;8.57;;;;;;;7.10;87.71;100915.50;3145424;28;20052;-69
2022/12/05 01:05:48;;;;;;;17.50;8.50;;;;;;;7.10;87.64;100908.63;3144901;28;20606;-69
2022/12/05 01:07:20;;;;;;;17.40;8.05;;;;;;;7.07;87.88;100901.75;3144839;28;20174;-70
2022/12/05 01:08:56;;;;;;;16.10;8.75;;;;;;;7.12;87.82;100912.03;3144661;28;20110;-68
2022/12/05 01:10:27;;;;;;;16.80;8.52;;;;;;;7.12;87.82;100908.59;3144716;28;20084;-70
2022/12/05 01:11:59;;;;;;;16.23;7.95;;;;;;;7.12;87.87;100908.59;3144527;28;20052;-70
2022/12/05 01:13:31;;;;;;;15.93;9.18;;;;;;;6.74;88.00;100858.97;3142649;28;20075;-69
2022/12/05 01:15:04;;;;;;;13.68;7.35;;;;;;;7.14;87.81;100912.03;3144419;28;20166;-66
2022/12/05 01:16:38;;;;;;;15.18;8.40;;;;;;;7.14;87.76;100907.69;3144707;28;20052;-69
2022/12/05 01:18:08;;;;;;;17.48;8.30;;;;;;;7.12;87.63;100906.00;3144909;28;20044;-69
2022/12/05 01:19:40;;;;;;;14.60;8.27;;;;;;;7.14;87.92;100904.25;3144509;28;20101;-67
2022/12/05 01:21:13;;;;;;;18.95;8.65;;;;;;;7.00;87.83;100881.97;3144334;28;20126;-68
2022/12/05 01:22:44;;;;;;;20.13;10.07;;;;;;;7.15;87.63;100903.34;3144684;28;20061;-68
2022/12/05 01:24:18;;;;;;;16.42;9.23;;;;;;;7.15;87.86;100900.78;3144572;28;20461;-69
2022/12/05 01:25:52;;;;;;;14.75;8.48;;;;;;;7.06;88.04;100884.47;3141501;28;20048;-68
2022/12/05 01:27:24;;;;;;;15.63;9.27;;;;;;;7.13;87.86;100902.50;3141872;28;20052;-68
2022/12/05 01:28:56;;;;;;;16.20;8.90;;;;;;;7.15;87.98;100906.81;3141195;28;20059;-68
2022/12/05 01:30:28;;;;;;;17.77;9.18;;;;;;;7.15;87.91;100898.19;3139178;28;20067;-67
2022/12/05 01:32:00;;;;;;;14.48;9.50;;;;;;;7.15;87.73;100900.78;3142126;28;20086;-68
2022/12/05 01:33:31;;;;;;;15.98;8.50;;;;;;;7.16;87.71;100902.47;3144305;28;20055;-68
2022/12/05 01:35:03;;;;;;;15.15;9.18;;;;;;;7.15;87.90;100904.22;3144425;28;20493;-68
2022/12/05 01:36:35;;;;;;;17.80;9.93;;;;;;;7.13;87.71;100889.56;3144233;28;20144;-68
2022/12/05 01:38:07;;;;;;;18.35;9.15;;;;;;;7.17;87.95;100894.69;3144257;28;20079;-67
2022/12/05 01:39:40;;;;;;;14.77;8.43;;;;;;;7.11;87.88;100886.16;3144368;28;20419;-67
2022/12/05 01:41:13;;;;;;;16.63;9.60;;;;;;;7.15;87.84;100882.63;3144432;28;20052;-67
2022/12/05 01:42:45;;;;;;;17.45;9.50;;;;;;;7.18;88.14;100892.94;3139031;28;20151;-67
2022/12/05 01:44:54;;;;;;;18.88;9.40;;;;;;;7.18;87.90;100888.63;3139348;28;20086;-68
2022/12/05 01:46:28;;;;;;;18.73;9.88;;;;;;;7.17;87.99;100883.47;3123107;28;20566;-67
2022/12/05 01:48:05;;;;;;;17.20;9.82;;;;;;;7.18;88.26;100890.38;3134554;28;20056;-66
2022/12/05 01:49:40;;;;;;;17.77;9.30;;;;;;;7.18;87.97;100886.03;3135131;28;20294;-67
2022/12/05 01:51:12;;;;;;;15.63;9.38;;;;;;;7.18;88.12;100883.44;3134922;28;20056;-66
2022/12/05 01:52:44;;;;;;;18.02;9.13;;;;;;;7.20;88.04;100884.28;3134507;28;20306;-67
2022/12/05 01:54:17;;;;;;;19.55;9.80;;;;;;;7.18;88.19;100872.22;3135501;28;20109;-66
2022/12/05 01:55:51;;;;;;;17.50;9.05;;;;;;;7.24;87.99;100879.91;3134623;28;20158;-67
2022/12/05 01:57:24;;;;;;;17.67;9.02;;;;;;;7.25;87.94;100882.50;3134081;28;20048;-67
2022/12/05 01:58:56;;;;;;;17.88;9.45;;;;;;;7.25;88.25;100879.06;3134223;28;20148;-67
2022/12/05 02:00:28;;;;;;;15.10;8.77;;;;;;;7.10;88.06;100846.44;3134893;28;20052;-67
2022/12/05 02:02:00;;;;;;;16.30;8.93;;;;;;;7.25;87.82;100873.88;3135339;28;20321;-66
2022/12/05 02:03:32;;;;;;;16.20;8.65;;;;;;;7.27;88.01;100872.94;3135186;28;20056;-66
2022/12/05 02:05:06;;;;;;;16.42;8.93;;;;;;;7.27;87.80;100869.50;3134348;28;20045;-68
2022/12/05 02:06:38;;;;;;;18.58;8.88;;;;;;;7.21;88.07;100867.84;3135144;28;20143;-67
2022/12/05 02:08:11;;;;;;;19.67;8.55;;;;;;;7.27;87.87;100874.69;3134440;28;20059;-66
2022/12/05 02:09:42;;;;;;;15.85;9.13;;;;;;;7.17;87.79;100855.84;3135327;28;20075;-66
2022/12/05 02:11:16;;;;;;;17.23;8.93;;;;;;;7.29;87.94;100878.13;3134695;28;20056;-66
2022/12/05 02:12:49;;;;;;;16.52;8.35;;;;;;;7.24;87.78;100869.56;3135379;28;20052;-68
2022/12/05 02:14:31;;;;;;;19.00;9.35;;;;;;;7.28;87.84;100871.25;3135278;28;20075;-66
2022/12/05 02:16:08;;;;;;;17.20;9.82;;;;;;;7.27;87.97;100872.09;3135210;28;20573;-68
2022/12/05 02:17:50;;;;;;;15.50;9.32;;;;;;;7.28;87.67;100871.25;3134143;28;20328;-67
2022/12/05 02:20:03;;;;;;;17.27;9.05;;;;;;;7.24;87.71;100873.00;3129580;28;20056;-69
2022/12/05 02:22:12;;;;;;;19.00;9.88;;;;;;;7.23;88.04;100884.25;3119583;28;20060;-68
2022/12/05 02:24:23;;;;;;;18.70;9.02;;;;;;;7.18;87.62;100865.31;3133876;28;20052;-68
2022/12/05 02:26:33;;;;;;;15.45;8.55;;;;;;;7.22;87.76;100876.50;3134858;28;20121;-67
2022/12/05 02:28:25;;;;;;;19.67;8.80;;;;;;;7.21;87.61;100874.78;3120566;28;20112;-68
2022/12/05 02:30:06;;;;;;;17.98;8.73;;;;;;;7.22;88.07;100868.75;3125293;28;20063;-67
2022/12/05 02:31:46;;;;;;;15.77;8.75;;;;;;;7.10;87.78;100853.34;3134926;28;20492;-68
2022/12/05 02:33:23;;;;;;;18.35;9.00;;;;;;;7.20;87.64;100867.91;3134829;28;20472;-66
2022/12/05 02:35:03;;;;;;;18.20;9.50;;;;;;;7.19;87.95;100861.00;3135436;28;20052;-66
2022/12/05 02:36:42;;;;;;;19.90;9.10;;;;;;;7.19;87.89;100864.44;3134953;28;20442;-68
2022/12/05 02:38:25;;;;;;;19.13;9.35;;;;;;;7.18;87.59;100854.09;3134623;28;20048;-66
2022/12/05 02:40:04;;;;;;;16.27;9.47;;;;;;;7.18;87.85;100856.69;3134387;28;20049;-66
2022/12/05 02:41:40;;;;;;;18.92;9.20;;;;;;;7.18;87.97;100860.13;3133968;28;20322;-66
2022/12/05 02:43:16;;;;;;;18.15;9.90;;;;;;;7.19;87.65;100855.84;3133967;28;20576;-67
2022/12/05 02:44:54;;;;;;;19.70;9.82;;;;;;;6.47;87.65;100735.97;3135666;28;20053;-67
2022/12/05 02:46:30;;;;;;;19.65;9.88;;;;;;;7.24;87.58;100869.56;3134539;28;20056;-67
2022/12/05 02:48:03;;;;;;;18.42;8.73;;;;;;;7.23;87.46;100860.06;3134328;28;20572;-67
2022/12/05 02:49:36;;;;;;;15.43;8.98;;;;;;;7.21;87.37;100859.22;3134845;28;20057;-67
2022/12/05 02:51:12;;;;;;;17.65;9.57;;;;;;;7.21;87.37;100854.06;3134065;28;20053;-67
2022/12/05 02:52:47;;;;;;;17.60;9.18;;;;;;;7.25;87.41;100866.94;3134195;28;20056;-67
2022/12/05 02:54:23;;;;;;;16.33;8.90;;;;;;;7.25;87.31;100860.91;3135642;28;20518;-67
2022/12/05 02:55:56;;;;;;;18.38;8.85;;;;;;;7.25;87.28;100856.59;3137590;28;20585;-67
2022/12/05 02:57:29;;;;;;;15.65;9.60;;;;;;;7.26;87.33;100860.88;3136741;28;20504;-67
2022/12/05 02:59:02;;;;;;;19.02;9.27;;;;;;;7.25;87.37;100866.94;3136674;28;20052;-67
2022/12/05 03:00:34;;;;;;;17.58;9.75;;;;;;;7.26;87.55;100867.81;3137479;28;20137;-67
2022/12/05 03:02:22;;;;;;;18.65;9.63;;;;;;;7.23;87.36;100863.53;3136978;28;20188;-67
2022/12/05 03:03:56;;;;;;;21.55;9.90;;;;;;;7.21;87.65;100864.41;3137679;28;20056;-67
2022/12/05 03:05:37;;;;;;;19.90;9.73;;;;;;;7.21;87.62;100865.25;3136250;28;20053;-67
2022/12/05 03:07:13;;;;;;;21.02;9.52;;;;;;;7.21;87.59;100867.84;3136294;28;20052;-67
2022/12/05 03:08:47;;;;;;;15.27;8.65;;;;;;;7.16;86.95;100859.31;3136894;28;20205;-67
2022/12/05 03:10:24;;;;;;;19.25;9.45;;;;;;;7.17;87.17;100871.38;3137487;28;20056;-67
2022/12/05 03:12:06;;;;;;;20.88;9.40;;;;;;;7.17;86.96;100873.13;3137215;28;20084;-67
2022/12/05 03:13:43;;;;;;;20.40;9.38;;;;;;;7.15;87.19;100875.72;3136582;28;20537;-66
2022/12/05 03:15:23;;;;;;;19.70;9.70;;;;;;;6.35;86.84;100747.34;3136787;28;20056;-66
2022/12/05 03:17:01;;;;;;;19.02;9.40;;;;;;;7.12;87.10;100880.94;3135632;28;20048;-67
2022/12/05 03:18:39;;;;;;;18.15;9.30;;;;;;;7.08;86.96;100876.69;3136658;28;20197;-67
2022/12/05 03:20:18;;;;;;;19.67;10.48;;;;;;;7.13;87.21;100884.38;3136911;28;20048;-67
2022/12/05 03:21:53;;;;;;;19.33;10.00;;;;;;;7.06;87.07;100868.06;3136887;28;20048;-67
2022/12/05 03:23:30;;;;;;;18.25;9.73;;;;;;;7.10;87.12;100882.72;3137681;28;20110;-66
2022/12/05 03:25:04;;;;;;;21.40;9.90;;;;;;;6.60;86.71;100799.66;3136479;28;20049;-67
2022/12/05 03:26:45;;;;;;;;;;;;;;;7.01;86.85;100883.69;3134436;28;20216;-67
2022/12/05 03:28:23;;;;;;;20.60;9.23;;;;;;;6.95;86.82;100868.25;3137114;28;21655;-67
2022/12/05 03:29:57;;;;;;;18.27;8.55;;;;;;;6.91;86.67;100861.38;3136761;28;20084;-66
2022/12/05 03:31:38;;;;;;;19.88;9.90;;;;;;;7.01;86.89;100870.75;3136804;28;20822;-67
2022/12/05 03:33:15;;;;;;;18.35;9.20;;;;;;;6.99;86.55;100866.47;3135852;28;20071;-66
2022/12/05 03:34:58;;;;;;;18.20;9.15;;;;;;;7.02;86.61;100875.03;3136806;28;20327;-68
2022/12/05 03:36:39;;;;;;;18.75;9.23;;;;;;;7.00;86.61;100875.94;3136012;28;20113;-67
2022/12/05 03:38:14;;;;;;;21.48;10.50;;;;;;;6.98;86.29;100883.75;3137139;28;20508;-68
2022/12/05 03:39:52;;;;;;;20.25;10.23;;;;;;;7.01;86.86;100883.69;3135559;28;20130;-68
2022/12/05 03:41:31;;;;;;;18.83;9.77;;;;;;;7.00;86.75;100881.09;3130435;28;20068;-68
2022/12/05 03:43:10;;;;;;;19.77;9.35;;;;;;;7.00;86.76;100879.38;3145326;28;20106;-69
2022/12/05 03:44:47;;;;;;;19.73;10.10;;;;;;;7.02;87.08;100880.22;3147287;28;20052;-68
2022/12/05 03:46:26;;;;;;;18.30;10.80;;;;;;;7.02;87.10;100877.63;3145868;28;20434;-68
2022/12/05 03:48:07;;;;;;;22.85;10.18;;;;;;;6.98;87.08;100875.97;3145529;28;20059;-68
2022/12/05 03:49:42;;;;;;;16.30;9.35;;;;;;;7.01;86.93;100877.63;3145847;28;20056;-68
2022/12/05 03:51:18;;;;;;;19.70;10.93;;;;;;;7.01;87.10;100873.34;3145759;28;20102;-68
2022/12/05 03:52:57;;;;;;;17.13;9.40;;;;;;;7.01;87.21;100872.44;3145886;28;20679;-68
2022/12/05 03:54:34;;;;;;;21.65;10.30;;;;;;;6.92;87.09;100857.91;3145798;28;20051;-68
2022/12/05 03:56:10;;;;;;;22.13;10.75;;;;;;;6.94;87.06;100863.91;3145544;28;20536;-68
2022/12/05 03:57:48;;;;;;;20.15;10.18;;;;;;;6.96;87.07;100872.53;3145493;28;20064;-68
2022/12/05 03:59:25;;;;;;;20.35;9.95;;;;;;;7.01;86.95;100880.22;3139393;28;20114;-68
2022/12/05 04:01:00;;;;;;;19.05;9.68;;;;;;;7.01;87.03;100872.44;3145465;28;20052;-68
2022/12/05 04:02:44;;;;;;;18.25;9.65;;;;;;;7.00;87.09;100873.34;3137981;28;20052;-68
2022/12/05 04:04:21;;;;;;;19.35;9.48;;;;;;;6.97;86.61;100882.00;3145483;28;20044;-69
2022/12/05 04:05:56;;;;;;;16.67;8.65;;;;;;;6.95;86.63;100870.81;3145359;28;20041;-68
2022/12/05 04:07:34;;;;;;;16.30;8.68;;;;;;;6.78;86.58;100849.47;3145350;28;20575;-68
2022/12/05 04:09:09;;;;;;;22.60;9.60;;;;;;;6.92;86.57;100873.47;3133151;28;20445;-68
2022/12/05 04:10:50;;;;;;;18.92;9.20;;;;;;;6.74;86.43;100842.59;3144847;28;20147;-68
2022/12/05 04:12:26;;;;;;;27.67;9.60;;;;;;;6.86;86.71;100864.88;3144818;28;20537;-67
2022/12/05 04:14:01;;;;;;;18.67;9.55;;;;;;;6.91;86.53;100870.88;3145669;28;20059;-68
2022/12/05 04:17:02;;;;;;;18.25;9.52;;;;;;;6.91;86.89;100869.13;3145698;28;20451;-67
2022/12/05 04:17:32;;;;;;;20.90;10.48;;;;;;;6.71;86.80;100834.88;3145409;28;20128;-67
2022/12/05 04:19:08;;;;;;;18.77;10.35;;;;;;;6.72;87.01;100831.44;3144671;28;20040;-67
2022/12/05 04:22:34;;;;;;;21.75;10.93;;;;;;;6.93;86.59;100872.56;3145415;28;20049;-66
2022/12/05 04:26:07;;;;;;;23.17;10.27;;;;;;;6.94;86.74;100869.09;3145124;28;20075;-67
2022/12/05 04:27:43;;;;;;;23.42;10.93;;;;;;;6.82;87.08;100846.81;3145294;28;20049;-69
2022/12/05 04:29:24;;;;;;;22.77;10.90;;;;;;;6.88;87.20;100855.38;3145094;28;20051;-67
2022/12/05 04:31:05;;;;;;;22.25;10.10;;;;;;;6.96;87.11;100869.09;3145195;28;20052;-67
2022/12/05 04:32:42;;;;;;;20.60;10.50;;;;;;;6.94;87.13;100866.50;3145247;28;20106;-67
2022/12/05 04:34:16;;;;;;;19.92;10.85;;;;;;;6.93;86.91;100866.53;3145028;28;20059;-67
2022/12/05 04:35:54;;;;;;;21.83;10.43;;;;;;;6.48;87.19;100792.03;3144857;28;20487;-67
2022/12/05 04:37:31;;;;;;;19.98;10.93;;;;;;;6.87;87.09;100858.84;3144832;28;20414;-68
2022/12/05 04:39:08;;;;;;;23.13;11.52;;;;;;;6.92;87.06;100872.56;3144365;28;20052;-68
2022/12/05 04:40:45;;;;;;;21.35;9.88;;;;;;;6.89;86.95;100863.16;3145166;28;20415;-68
2022/12/05 04:42:19;;;;;;;23.20;10.45;;;;;;;6.89;86.92;100863.16;3144877;28;20045;-68
2022/12/05 04:43:54;;;;;;;27.95;11.70;;;;;;;6.93;87.02;100867.41;3144723;28;20053;-68
2022/12/05 04:45:26;;;;;;;21.17;10.57;;;;;;;6.93;87.24;100867.41;3145054;28;20109;-68
2022/12/05 04:47:02;;;;;;;23.58;11.18;;;;;;;6.01;87.00;100715.88;3145069;28;20056;-68
2022/12/05 04:48:37;;;;;;;23.95;11.18;;;;;;;6.91;87.14;100866.53;3145032;28;20056;-68
2022/12/05 04:50:12;;;;;;;19.75;11.70;;;;;;;6.90;87.23;100866.59;3145001;28;20074;-68
2022/12/05 04:51:47;;;;;;;22.48;11.23;;;;;;;6.91;87.29;100865.69;3144966;28;20137;-68
2022/12/05 04:53:20;;;;;;;20.52;11.68;;;;;;;6.92;87.14;100873.47;3134598;28;20052;-68
2022/12/05 04:55:00;;;;;;;18.55;10.65;;;;;;;6.54;86.83;100804.91;3144669;28;20114;-67
2022/12/05 04:56:36;;;;;;;19.80;11.52;;;;;;;6.88;86.85;100865.72;3144831;28;20048;-68
2022/12/05 04:58:11;;;;;;;25.85;11.77;;;;;;;6.86;86.50;100857.13;3144857;28;20453;-68
2022/12/05 04:59:43;;;;;;;21.92;11.77;;;;;;;6.59;86.62;100817.75;3144555;28;20052;-69
2022/12/05 05:01:20;;;;;;;26.05;11.68;;;;;;;6.93;86.63;100875.16;3144823;28;20544;-68
2022/12/05 05:02:56;;;;;;;27.30;12.93;;;;;;;6.84;86.58;100867.50;3144417;28;20063;-68
2022/12/05 05:04:34;;;;;;;20.55;11.55;;;;;;;6.91;86.62;100881.22;3144830;28;20045;-68
2022/12/05 05:06:06;;;;;;;34.42;11.88;;;;;;;6.88;86.61;100869.19;3144419;28;20113;-68
2022/12/05 05:07:43;;;;;;;21.83;11.13;;;;;;;6.80;86.88;100863.22;3144214;28;20124;-68
2022/12/05 05:09:16;;;;;;;23.88;12.02;;;;;;;6.58;87.06;100832.44;3144618;28;20175;-68
2022/12/05 05:10:57;;;;;;;22.92;11.98;;;;;;;6.87;86.95;100869.22;3144770;28;20048;-68
2022/12/05 05:12:29;;;;;;;21.20;12.30;;;;;;;6.72;86.81;100849.56;3132288;28;20053;-67
2022/12/05 05:14:01;;;;;;;21.77;11.70;;;;;;;6.82;87.18;100867.53;3143772;28;20052;-68
2022/12/05 05:15:33;;;;;;;20.70;11.65;;;;;;;6.87;87.00;100875.25;3144225;28;20110;-68
2022/12/05 05:17:05;;;;;;;26.80;11.48;;;;;;;6.89;86.97;100873.50;3144247;28;20071;-67
2022/12/05 05:18:37;;;;;;;25.13;11.10;;;;;;;6.82;87.03;100861.50;3143350;28;20082;-68
2022/12/05 05:20:25;;;;;;;21.17;10.88;;;;;;;6.86;87.18;100867.47;3143533;28;20040;-67
2022/12/05 05:21:59;;;;;;;19.65;10.45;;;;;;;6.82;86.88;100858.91;3142186;28;20501;-70
2022/12/05 05:23:31;;;;;;;;;;;;;;;6.82;86.99;100871.84;3144979;28;20201;-68
2022/12/05 05:25:03;;;;;;;20.98;10.20;;;;;;;6.79;87.02;100871.88;3141948;28;19924;-65
2022/12/05 05:26:38;;;;;;;18.58;10.63;;;;;;;6.76;86.60;100867.59;3156065;28;20048;-68
2022/12/05 05:28:10;;;;;;;21.08;11.60;;;;;;;6.80;86.95;100878.75;3132969;28;20052;-66
2022/12/05 05:29:42;;;;;;;19.63;10.75;;;;;;;6.79;86.98;100872.72;3142640;28;20105;-66
2022/12/05 05:31:15;;;;;;;19.58;11.00;;;;;;;6.64;86.59;100847.03;3144223;28;20190;-67
2022/12/05 05:32:46;;;;;;;21.40;10.40;;;;;;;6.39;86.72;100802.50;3143973;28;20109;-67
2022/12/05 05:34:18;;;;;;;21.23;10.50;;;;;;;6.76;86.60;100871.94;3132124;28;20048;-66
2022/12/05 05:35:50;;;;;;;26.08;11.55;;;;;;;6.76;87.01;100869.34;3141179;28;20208;-66
2022/12/05 05:37:21;;;;;;;22.05;11.35;;;;;;;6.76;86.90;100872.78;3144308;28;20410;-67
2022/12/05 05:38:55;;;;;;;25.50;12.10;;;;;;;6.74;87.31;100868.50;3143859;28;20041;-66
2022/12/05 05:40:27;;;;;;;24.17;11.85;;;;;;;6.66;87.52;100854.81;3144357;28;20052;-67
2022/12/05 05:42:00;;;;;;;24.92;11.52;;;;;;;6.70;87.44;100870.25;3136495;28;20071;-66
2022/12/05 05:43:32;;;;;;;25.48;13.55;;;;;;;6.74;87.64;100876.25;3137878;28;20689;-67
2022/12/05 05:45:05;;;;;;;40.53;20.45;;;;;;;6.74;87.54;100871.94;3141741;28;20051;-67
2022/12/05 05:46:37;;;;;;;46.03;22.92;;;;;;;6.65;87.79;100858.25;3143930;28;20090;-69
2022/12/05 05:48:09;;;;;;;38.50;19.42;;;;;;;6.76;87.89;100880.53;3144053;28;20063;-67
2022/12/05 05:49:40;;;;;;;32.78;14.20;;;;;;;6.78;88.07;100888.31;3138409;28;20098;-68
2022/12/05 05:51:13;;;;;;;26.10;12.65;;;;;;;6.78;88.04;100883.97;3144008;28;20113;-67
2022/12/05 05:52:45;;;;;;;;;;;;;;;6.71;88.11;100881.47;3144277;28;20105;-67
2022/12/05 05:54:17;;;;;;;28.40;12.93;;;;;;;6.72;88.19;100884.06;3144451;28;19924;-69
2022/12/05 05:55:49;;;;;;;80.20;36.65;;;;;;;6.67;88.09;100866.88;3144477;28;20487;-70
2022/12/05 05:57:21;;;;;;;62.00;31.30;;;;;;;6.77;88.25;100884.88;3143631;28;20113;-65
2022/12/05 05:58:58;;;;;;;158.98;73.88;;;;;;;6.80;88.60;100878.75;3144247;28;20061;-64
2022/12/05 06:00:30;;;;;;;121.25;58.50;;;;;;;6.82;88.58;100885.66;3144041;28;20154;-68
2022/12/05 06:02:02;;;;;;;33.33;18.27;;;;;;;6.86;88.50;100885.59;3144019;28;20083;-63
2022/12/05 06:03:34;;;;;;;37.08;15.95;;;;;;;6.84;88.63;100877.88;3143937;28;20433;-62
2022/12/05 06:05:07;;;;;;;26.63;13.68;;;;;;;6.88;88.52;100886.44;3143858;28;20615;-66
2022/12/05 06:06:40;;;;;;;26.08;13.55;;;;;;;6.88;88.65;100886.44;3144117;28;20064;-65
2022/12/05 06:08:12;;;;;;;27.42;13.55;;;;;;;6.83;88.16;100883.91;3144519;28;20056;-67
2022/12/05 06:09:44;;;;;;;30.65;13.73;;;;;;;6.88;88.20;100891.63;3143864;28;20478;-66
2022/12/05 06:11:19;;;;;;;26.90;14.32;;;;;;;6.90;88.02;100892.47;3143967;28;20118;-67
2022/12/05 06:12:52;;;;;;;32.38;14.30;;;;;;;6.90;88.31;100895.06;3144140;28;20128;-67
2022/12/05 06:14:24;;;;;;;25.55;12.23;;;;;;;6.90;88.19;100898.50;3143961;28;20052;-67
2022/12/05 06:15:56;;;;;;;24.33;12.77;;;;;;;6.90;88.17;100900.25;3143683;28;20052;-65
2022/12/05 06:17:27;;;;;;;29.65;12.73;;;;;;;6.91;88.10;100899.34;3132098;28;20454;-67
2022/12/05 06:19:00;;;;;;;26.73;12.63;;;;;;;6.90;88.16;100903.69;3139414;28;20111;-68
2022/12/05 06:20:32;;;;;;;130.05;62.22;;;;;;;6.90;88.02;100903.69;3139701;28;20090;-66
2022/12/05 06:22:03;;;;;;;165.13;79.78;;;;;;;6.88;87.93;100900.25;3131595;28;20049;-66
2022/12/05 06:23:36;;;;;;;146.18;68.35;;;;;;;6.62;88.16;100853.97;3131299;28;20083;-67
2022/12/05 06:25:09;;;;;;;37.88;18.88;;;;;;;6.74;88.26;100877.09;3137243;28;20467;-66
2022/12/05 06:26:41;;;;;;;27.00;13.75;;;;;;;6.95;88.25;100907.09;3132585;28;20107;-67
2022/12/05 06:28:15;;;;;;;30.55;13.75;;;;;;;6.97;88.22;100909.63;3130779;28;20099;-67
2022/12/05 06:29:46;;;;;;;;;;;;;;;6.90;88.22;100902.84;3144074;28;20044;-68
2022/12/05 06:31:20;;;;;;;32.22;13.75;;;;;;;6.90;88.33;100906.28;3141434;28;20400;-65
2022/12/05 06:32:52;;;;;;;28.55;12.93;;;;;;;6.92;88.31;100914.91;3145739;28;20141;-68
2022/12/05 06:34:24;;;;;;;34.20;13.90;;;;;;;6.86;88.10;100906.31;3146163;28;20062;-66
2022/12/05 06:36:03;;;;;;;30.98;12.70;;;;;;;6.90;88.20;100906.28;3146441;28;20048;-69
2022/12/05 06:37:37;;;;;;;31.25;13.35;;;;;;;6.92;88.20;100917.47;3133636;28;20057;-69
2022/12/05 06:39:09;;;;;;;32.30;12.85;;;;;;;6.99;87.98;100928.63;3144157;28;20097;-68
2022/12/05 06:40:42;;;;;;;34.55;13.10;;;;;;;6.99;87.98;100928.63;3146348;28;20048;-72
2022/12/05 06:42:14;;;;;;;33.90;12.90;;;;;;;6.99;87.97;100926.88;3146437;28;20088;-68
2022/12/05 06:43:47;;;;;;;35.00;12.65;;;;;;;6.99;87.90;100931.19;3146335;28;20521;-68
2022/12/05 06:45:19;;;;;;;40.35;12.98;;;;;;;7.00;87.68;100951.03;3146175;28;20127;-69
2022/12/05 06:46:50;;;;;;;39.05;14.02;;;;;;;6.94;87.63;100920.88;3146052;28;20044;-70
2022/12/05 06:48:22;;;;;;;33.70;13.75;;;;;;;7.04;87.90;100938.03;3138138;28;20057;-69
2022/12/05 06:49:54;;;;;;;40.88;13.85;;;;;;;7.05;87.61;100944.94;3133548;28;20045;-70
2022/12/05 06:51:26;;;;;;;44.70;14.27;;;;;;;7.01;87.74;100935.50;3133901;28;20171;-70
2022/12/05 06:52:58;;;;;;;44.53;14.68;;;;;;;6.70;87.42;100870.25;3133803;28;20052;-70
2022/12/05 06:54:30;;;;;;;46.50;14.75;;;;;;;7.10;87.56;100937.13;3133631;28;20045;-70
2022/12/05 06:56:06;;;;;;;45.05;14.13;;;;;;;7.13;87.59;100937.06;3144353;28;20762;-69
2022/12/05 06:57:38;;;;;;;42.70;14.68;;;;;;;7.11;87.82;100933.63;3146501;28;20063;-68
2022/12/05 06:59:11;;;;;;;43.25;15.10;;;;;;;7.15;87.65;100945.66;3145246;28;20066;-66
2022/12/05 07:02:32;;;;;;;38.20;14.10;;;;;;;7.15;87.36;100944.81;3139073;28;20056;-66
2022/12/05 07:04:05;;;;;;;45.10;16.35;;;;;;;7.16;87.59;100943.91;3142496;28;20057;-68
2022/12/05 07:05:37;;;;;;;38.65;15.40;;;;;;;7.17;87.21;100951.69;3139890;28;20052;-69
2022/12/05 07:07:10;;;;;;;85.75;38.25;;;;;;;7.21;87.60;100947.31;3145675;28;20049;-68
2022/12/05 07:08:42;;;;;;;552.33;306.40;;;;;;;7.27;87.64;100949.81;3146213;28;20051;-67
2022/12/05 07:10:13;;;;;;;58.05;25.25;;;;;;;7.32;87.36;100952.38;3146270;28;20136;-71
2022/12/05 07:11:47;;;;;;;47.95;20.13;;;;;;;7.38;87.62;100949.69;3146189;28;20060;-68
2022/12/05 07:13:19;;;;;;;54.67;20.25;;;;;;;7.39;87.35;100947.06;3146065;28;20045;-69
2022/12/05 07:14:52;;;;;;;57.67;19.27;;;;;;;6.69;87.43;100831.47;3145848;28;20197;-70
2022/12/05 07:16:24;;;;;;;57.47;20.05;;;;;;;7.44;87.41;100949.59;3146062;28;20037;-69
2022/12/05 07:17:56;;;;;;;59.17;20.83;;;;;;;7.46;87.42;100953.91;3146275;28;20048;-71
2022/12/05 07:19:28;;;;;;;56.10;19.95;;;;;;;7.49;87.56;100953.84;3145805;28;20056;-71
2022/12/05 07:21:02;;;;;;;53.58;19.48;;;;;;;7.50;87.70;100949.53;3144850;28;20204;-69
2022/12/05 07:22:36;;;;;;;55.20;20.27;;;;;;;7.56;87.55;100956.34;3133645;28;20060;-69
2022/12/05 07:24:08;;;;;;;50.00;20.02;;;;;;;7.51;87.54;100941.75;3143801;28;20040;-68
2022/12/05 07:25:40;;;;;;;49.42;16.75;;;;;;;7.55;87.55;100949.47;3154159;28;20060;-68